PWSweather.com
Personal Weather Stations
Station Observations
HELOTES
Helotes Park Terrace, Helotes, TX 78023

Helotes Park TerraceHelotes, TX 78023

Lat: 29.57, Lon: -98.68

Elevation: 1060

Station Type: Ambient Weather WS-1090

Latest ConditionsUpdated 9:50:01 PM CDT Monday, Apr 20, 2015
Currently Today's Max Today's Min Today's Average
Temperature 63.2°F17.3°C 72.2°F22.3°C 56.0°F13.3°C 62.6°F17.0°C
Dew Point 48.2°F9.0°C 48.7°F9.3°C 39.5°F4.2°C 44.9°F7.2°C
Winds 1.3 mph ENE2.1 kmh ENE 13.6 mph NNE21.9 kmh NNE - 5.5 mph 8.9 kmh
Wind Gusts 1.3 mph2.1 kmh 13.6 mph21.9 kmh - -
Humidity 58% 61% 40% 53%
Pressure 29.90 in1012.5 mb 29.95 in1014.2 mb 29.79 in1008.8 mb -
Hour Temp Dew Point Humidity Winds Wind Gusts Pressure Precip Precip Rate Daily Precip Total
09:50 PM 63.2°F17.3°C 48.2°F9.0°C 58% 1.3 mph ENE2.1 kmh ENE 1.3 mph2.1 kmh 29.90 in1012.5 mb 0.00 in0.0 mm 0.00 in0.0 mm 0.00 in0.0 mm
09:45 PM 63.4°F17.4°C 47.8°F8.8°C 57% 1.3 mph ENE2.1 kmh ENE 2.5 mph4.0 kmh 29.90 in1012.5 mb 0.00 in0.0 mm 0.00 in0.0 mm 0.00 in0.0 mm
09:40 PM 63.4°F17.4°C 47.8°F8.8°C 57% 1.3 mph E2.1 kmh E 2.5 mph4.0 kmh 29.91 in1012.9 mb 0.00 in0.0 mm 0.00 in0.0 mm 0.00 in0.0 mm
09:34 PM 63.5°F17.5°C 48.0°F8.9°C 57% 2.5 mph ENE4.0 kmh ENE 2.5 mph4.0 kmh 29.91 in1012.9 mb 0.00 in0.0 mm 0.00 in0.0 mm 0.00 in0.0 mm
09:30 PM 63.7°F17.6°C 48.2°F9.0°C 57% 0.4 mph ENE0.6 kmh ENE 2.5 mph4.0 kmh 29.90 in1012.5 mb 0.00 in0.0 mm 0.00 in0.0 mm 0.00 in0.0 mm
09:25 PM 63.9°F17.7°C 48.2°F9.0°C 57% 2.5 mph NNE4.0 kmh NNE 2.5 mph4.0 kmh 29.89 in1012.2 mb 0.00 in0.0 mm 0.00 in0.0 mm 0.00 in0.0 mm
09:20 PM 64.1°F17.8°C 48.0°F8.9°C 56% Calm Calm 2.2 mph3.5 kmh 29.89 in1012.2 mb 0.00 in0.0 mm 0.00 in0.0 mm 0.00 in0.0 mm
09:15 PM 64.1°F17.8°C 48.0°F8.9°C 56% 0.7 mph 1.1 kmh 2.2 mph3.5 kmh 29.89 in1012.2 mb 0.00 in0.0 mm 0.00 in0.0 mm 0.00 in0.0 mm
09:10 PM 64.3°F17.9°C 47.6°F8.7°C 55% 2.2 mph NNE3.5 kmh NNE 2.5 mph4.0 kmh 29.88 in1011.9 mb 0.00 in0.0 mm 0.00 in0.0 mm 0.00 in0.0 mm
09:05 PM 64.4°F18.0°C 47.8°F8.8°C 55% 1.0 mph NNE1.6 kmh NNE 2.5 mph4.0 kmh 29.88 in1011.9 mb 0.00 in0.0 mm 0.00 in0.0 mm 0.00 in0.0 mm
08:00 PM 66.6°F19.2°C 48.0°F8.9°C 51% 1.8 mph NE2.9 kmh NE 1.8 mph2.9 kmh 29.87 in1011.5 mb 0.00 in0.0 mm 0.00 in0.0 mm 0.00 in0.0 mm
07:00 PM 68.8°F20.4°C 48.2°F9.0°C 48% 0.4 mph ESE0.6 kmh ESE 0.4 mph0.6 kmh 29.87 in1011.5 mb 0.00 in0.0 mm 0.00 in0.0 mm 0.00 in0.0 mm
06:00 PM 70.4°F21.3°C 47.9°F8.8°C 45% 2.2 mph ENE3.5 kmh ENE 2.2 mph3.5 kmh 29.86 in1011.2 mb 0.00 in0.0 mm 0.00 in0.0 mm 0.00 in0.0 mm
05:00 PM 71.3°F21.8°C 47.5°F8.6°C 43% 0.2 mph ENE0.3 kmh ENE 0.2 mph0.3 kmh 29.85 in1010.8 mb 0.00 in0.0 mm 0.00 in0.0 mm 0.00 in0.0 mm
04:00 PM 71.6°F22.0°C 47.9°F8.8°C 43% 6.9 mph 11.1 kmh 6.9 mph11.1 kmh 29.86 in1011.2 mb 0.00 in0.0 mm 0.00 in0.0 mm 0.00 in0.0 mm
03:00 PM 71.3°F21.8°C 46.4°F8.0°C 41% 4.3 mph 6.9 kmh 4.3 mph6.9 kmh 29.88 in1011.9 mb 0.00 in0.0 mm 0.00 in0.0 mm 0.00 in0.0 mm
02:00 PM 72.2°F22.3°C 46.5°F8.1°C 40% 7.2 mph 11.6 kmh 7.2 mph11.6 kmh 29.89 in1012.2 mb 0.00 in0.0 mm 0.00 in0.0 mm 0.00 in0.0 mm
01:00 PM 70.0°F21.1°C 45.8°F7.7°C 42% 5.1 mph 8.2 kmh 5.1 mph8.2 kmh 29.92 in1013.2 mb 0.00 in0.0 mm 0.00 in0.0 mm 0.00 in0.0 mm
12:00 PM 67.5°F19.7°C 44.7°F7.1°C 44% 7.6 mph NE12.2 kmh NE 7.6 mph12.2 kmh 29.94 in1013.9 mb 0.00 in0.0 mm 0.00 in0.0 mm 0.00 in0.0 mm
11:17 AM 65.5°F18.6°C 43.5°F6.4°C 45% 9.6 mph NNW15.4 kmh NNW 9.6 mph15.4 kmh 29.94 in1013.9 mb 0.00 in0.0 mm 0.00 in0.0 mm 0.00 in0.0 mm
11:14 AM 65.5°F18.6°C 43.5°F6.4°C 45% 7.6 mph NNW12.2 kmh NNW 9.6 mph15.4 kmh 29.94 in1013.9 mb 0.00 in0.0 mm 0.00 in0.0 mm 0.00 in0.0 mm
11:09 AM 65.3°F18.5°C 42.8°F6.0°C 44% 6.5 mph NNE10.5 kmh NNE 9.4 mph15.1 kmh 29.94 in1013.9 mb 0.00 in0.0 mm 0.00 in0.0 mm 0.00 in0.0 mm
11:04 AM 65.0°F18.3°C 43.6°F6.4°C 46% 9.4 mph NNW15.1 kmh NNW 11.4 mph18.3 kmh 29.94 in1013.9 mb 0.00 in0.0 mm 0.00 in0.0 mm 0.00 in0.0 mm
10:59 AM 64.6°F18.1°C 43.8°F6.6°C 47% 9.3 mph NNE15.0 kmh NNE 11.4 mph18.3 kmh 29.94 in1013.9 mb 0.00 in0.0 mm 0.00 in0.0 mm 0.00 in0.0 mm
10:54 AM 64.3°F17.9°C 43.5°F6.4°C 47% 10.0 mph N16.1 kmh N 12.8 mph20.6 kmh 29.94 in1013.9 mb 0.00 in0.0 mm 0.00 in0.0 mm 0.00 in0.0 mm
10:49 AM 63.9°F17.7°C 43.1°F6.2°C 47% 10.3 mph N16.6 kmh N 12.8 mph20.6 kmh 29.94 in1013.9 mb 0.00 in0.0 mm 0.00 in0.0 mm 0.00 in0.0 mm
10:44 AM 63.7°F17.6°C 43.0°F6.1°C 47% 8.5 mph NNE13.7 kmh NNE 8.5 mph13.7 kmh 29.95 in1014.2 mb 0.00 in0.0 mm 0.00 in0.0 mm 0.00 in0.0 mm
10:39 AM 63.2°F17.3°C 43.1°F6.2°C 48% 5.4 mph 8.7 kmh 9.2 mph14.8 kmh 29.95 in1014.2 mb 0.00 in0.0 mm 0.00 in0.0 mm 0.00 in0.0 mm
10:34 AM 62.8°F17.1°C 42.8°F6.0°C 48% 6.3 mph 10.1 kmh 9.8 mph15.8 kmh 29.95 in1014.2 mb 0.00 in0.0 mm 0.00 in0.0 mm 0.00 in0.0 mm
10:29 AM 62.5°F16.9°C 42.4°F5.8°C 48% 5.7 mph NNW9.2 kmh NNW 9.8 mph15.8 kmh 29.95 in1014.2 mb 0.00 in0.0 mm 0.00 in0.0 mm 0.00 in0.0 mm
10:24 AM 62.3°F16.8°C 42.3°F5.7°C 48% 7.8 mph NNE12.6 kmh NNE 9.8 mph15.8 kmh 29.94 in1013.9 mb 0.00 in0.0 mm 0.00 in0.0 mm 0.00 in0.0 mm
10:19 AM 62.5°F16.9°C 43.0°F6.1°C 49% 9.2 mph NNW14.8 kmh NNW 9.2 mph14.8 kmh 29.94 in1013.9 mb 0.00 in0.0 mm 0.00 in0.0 mm 0.00 in0.0 mm
10:14 AM 62.3°F16.8°C 43.4°F6.3°C 50% 3.6 mph NNE5.8 kmh NNE 6.7 mph10.8 kmh 29.94 in1013.9 mb 0.00 in0.0 mm 0.00 in0.0 mm 0.00 in0.0 mm
10:09 AM 62.1°F16.7°C 43.3°F6.3°C 50% 6.6 mph N10.6 kmh N 9.2 mph14.8 kmh 29.93 in1013.5 mb 0.00 in0.0 mm 0.00 in0.0 mm 0.00 in0.0 mm
10:04 AM 61.6°F16.4°C 43.3°F6.3°C 51% 7.5 mph N12.1 kmh N 9.2 mph14.8 kmh 29.93 in1013.5 mb 0.00 in0.0 mm 0.00 in0.0 mm 0.00 in0.0 mm
09:59 AM 61.0°F16.1°C 43.3°F6.3°C 52% 4.0 mph 6.4 kmh 9.2 mph14.8 kmh 29.93 in1013.5 mb 0.00 in0.0 mm 0.00 in0.0 mm 0.00 in0.0 mm
09:54 AM 60.3°F15.7°C 42.1°F5.6°C 51% 4.5 mph 7.2 kmh 8.5 mph13.7 kmh 29.93 in1013.5 mb 0.00 in0.0 mm 0.00 in0.0 mm 0.00 in0.0 mm
09:49 AM 60.3°F15.7°C 42.1°F5.6°C 51% 5.1 mph 8.2 kmh 13.4 mph21.6 kmh 29.93 in1013.5 mb 0.00 in0.0 mm 0.00 in0.0 mm 0.00 in0.0 mm
09:44 AM 60.3°F15.7°C 42.1°F5.6°C 51% 10.7 mph N17.2 kmh N 13.4 mph21.6 kmh 29.92 in1013.2 mb 0.00 in0.0 mm 0.00 in0.0 mm 0.00 in0.0 mm
09:39 AM 59.9°F15.5°C 42.3°F5.7°C 52% 2.9 mph 4.7 kmh 10.3 mph16.6 kmh 29.92 in1013.2 mb 0.00 in0.0 mm 0.00 in0.0 mm 0.00 in0.0 mm
09:34 AM 59.8°F15.4°C 42.1°F5.6°C 52% 10.3 mph 16.6 kmh 10.3 mph16.6 kmh 29.92 in1013.2 mb 0.00 in0.0 mm 0.00 in0.0 mm 0.00 in0.0 mm
09:29 AM 59.4°F15.2°C 42.2°F5.7°C 53% 4.3 mph NNW6.9 kmh NNW 13.2 mph21.2 kmh 29.92 in1013.2 mb 0.00 in0.0 mm 0.00 in0.0 mm 0.00 in0.0 mm
09:24 AM 58.9°F14.9°C 42.2°F5.7°C 54% 6.9 mph NNE11.1 kmh NNE 13.2 mph21.2 kmh 29.93 in1013.5 mb 0.00 in0.0 mm 0.00 in0.0 mm 0.00 in0.0 mm
09:19 AM 58.7°F14.8°C 42.0°F5.6°C 54% 13.2 mph 21.2 kmh 13.2 mph21.2 kmh 29.93 in1013.5 mb 0.00 in0.0 mm 0.00 in0.0 mm 0.00 in0.0 mm
09:14 AM 58.5°F14.7°C 41.9°F5.5°C 54% 6.6 mph 10.6 kmh 6.9 mph11.1 kmh 29.93 in1013.5 mb 0.00 in0.0 mm 0.00 in0.0 mm 0.00 in0.0 mm
09:09 AM 58.5°F14.7°C 41.9°F5.5°C 54% 6.6 mph N10.6 kmh N 6.9 mph11.1 kmh 29.92 in1013.2 mb 0.00 in0.0 mm 0.00 in0.0 mm 0.00 in0.0 mm
09:04 AM 58.3°F14.6°C 41.8°F5.4°C 54% 4.9 mph NNE7.9 kmh NNE 6.7 mph10.8 kmh 29.93 in1013.5 mb 0.00 in0.0 mm 0.00 in0.0 mm 0.00 in0.0 mm
08:59 AM 58.1°F14.5°C 42.5°F5.8°C 56% 4.7 mph NNE7.6 kmh NNE 7.4 mph11.9 kmh 29.92 in1013.2 mb 0.00 in0.0 mm 0.00 in0.0 mm 0.00 in0.0 mm
08:54 AM 58.0°F14.4°C 42.3°F5.7°C 56% 6.7 mph NNE10.8 kmh NNE 7.4 mph11.9 kmh 29.92 in1013.2 mb 0.00 in0.0 mm 0.00 in0.0 mm 0.00 in0.0 mm
08:49 AM 57.6°F14.2°C 41.6°F5.3°C 55% 7.4 mph NNW11.9 kmh NNW 7.4 mph11.9 kmh 29.92 in1013.2 mb 0.00 in0.0 mm 0.00 in0.0 mm 0.00 in0.0 mm
08:44 AM 57.4°F14.1°C 41.4°F5.2°C 55% 6.9 mph NNE11.1 kmh NNE 6.9 mph11.1 kmh 29.92 in1013.2 mb 0.00 in0.0 mm 0.00 in0.0 mm 0.00 in0.0 mm
08:39 AM 57.2°F14.0°C 41.2°F5.1°C 55% 3.6 mph NNE5.8 kmh NNE 8.9 mph14.3 kmh 29.92 in1013.2 mb 0.00 in0.0 mm 0.00 in0.0 mm 0.00 in0.0 mm
08:34 AM 56.9°F13.8°C 40.9°F4.9°C 55% 2.9 mph NNE4.7 kmh NNE 8.9 mph14.3 kmh 29.92 in1013.2 mb 0.00 in0.0 mm 0.00 in0.0 mm 0.00 in0.0 mm
08:29 AM 56.7°F13.7°C 40.7°F4.8°C 55% 8.9 mph 14.3 kmh 8.9 mph14.3 kmh 29.91 in1012.9 mb 0.00 in0.0 mm 0.00 in0.0 mm 0.00 in0.0 mm
08:24 AM 56.5°F13.6°C 40.5°F4.7°C 55% 5.5 mph N8.9 kmh N 7.2 mph11.6 kmh 29.91 in1012.9 mb 0.00 in0.0 mm 0.00 in0.0 mm 0.00 in0.0 mm
08:19 AM 56.5°F13.6°C 40.5°F4.7°C 55% 5.3 mph N8.5 kmh N 7.2 mph11.6 kmh 29.91 in1012.9 mb 0.00 in0.0 mm 0.00 in0.0 mm 0.00 in0.0 mm
08:14 AM 56.3°F13.5°C 40.3°F4.6°C 55% 5.6 mph W9.0 kmh W 6.9 mph11.1 kmh 29.90 in1012.5 mb 0.00 in0.0 mm 0.00 in0.0 mm 0.00 in0.0 mm
08:09 AM 56.5°F13.6°C 40.5°F4.7°C 55% 4.3 mph 6.9 kmh 6.9 mph11.1 kmh 29.90 in1012.5 mb 0.00 in0.0 mm 0.00 in0.0 mm 0.00 in0.0 mm
08:04 AM 56.5°F13.6°C 40.5°F4.7°C 55% 5.2 mph 8.4 kmh 6.9 mph11.1 kmh 29.90 in1012.5 mb 0.00 in0.0 mm 0.00 in0.0 mm 0.00 in0.0 mm
07:59 AM 56.3°F13.5°C 40.3°F4.6°C 55% 4.0 mph N6.4 kmh N 7.4 mph11.9 kmh 29.90 in1012.5 mb 0.00 in0.0 mm 0.00 in0.0 mm 0.00 in0.0 mm
07:54 AM 56.2°F13.4°C 40.1°F4.5°C 55% 4.5 mph 7.2 kmh 7.6 mph12.2 kmh 29.90 in1012.5 mb 0.00 in0.0 mm 0.00 in0.0 mm 0.00 in0.0 mm
07:49 AM 56.2°F13.4°C 40.1°F4.5°C 55% 7.4 mph 11.9 kmh 8.3 mph13.4 kmh 29.89 in1012.2 mb 0.00 in0.0 mm 0.00 in0.0 mm 0.00 in0.0 mm
07:44 AM 56.0°F13.3°C 39.5°F4.2°C 54% 8.0 mph 12.9 kmh 8.3 mph13.4 kmh 29.90 in1012.5 mb 0.00 in0.0 mm 0.00 in0.0 mm 0.00 in0.0 mm
07:39 AM 56.0°F13.3°C 40.0°F4.4°C 55% 7.0 mph 11.3 kmh 8.3 mph13.4 kmh 29.90 in1012.5 mb 0.00 in0.0 mm 0.00 in0.0 mm 0.00 in0.0 mm
07:34 AM 56.2°F13.4°C 39.7°F4.3°C 54% 0.9 mph 1.4 kmh 6.0 mph9.7 kmh 29.90 in1012.5 mb 0.00 in0.0 mm 0.00 in0.0 mm 0.00 in0.0 mm
07:29 AM 56.2°F13.4°C 39.7°F4.3°C 54% 6.0 mph 9.7 kmh 6.0 mph9.7 kmh 29.89 in1012.2 mb 0.00 in0.0 mm 0.00 in0.0 mm 0.00 in0.0 mm
07:24 AM 56.3°F13.5°C 39.9°F4.4°C 54% 3.1 mph 5.0 kmh 10.3 mph16.6 kmh 29.89 in1012.2 mb 0.00 in0.0 mm 0.00 in0.0 mm 0.00 in0.0 mm
07:19 AM 56.3°F13.5°C 39.9°F4.4°C 54% 4.2 mph NE6.8 kmh NE 10.3 mph16.6 kmh 29.89 in1012.2 mb 0.00 in0.0 mm 0.00 in0.0 mm 0.00 in0.0 mm
07:14 AM 56.5°F13.6°C 40.1°F4.5°C 54% 10.3 mph NNE16.6 kmh NNE 10.3 mph16.6 kmh 29.89 in1012.2 mb 0.00 in0.0 mm 0.00 in0.0 mm 0.00 in0.0 mm
07:09 AM 56.5°F13.6°C 40.1°F4.5°C 54% 9.6 mph 15.4 kmh 9.6 mph15.4 kmh 29.88 in1011.9 mb 0.00 in0.0 mm 0.00 in0.0 mm 0.00 in0.0 mm
07:04 AM 56.5°F13.6°C 40.1°F4.5°C 54% 7.1 mph 11.4 kmh 7.4 mph11.9 kmh 29.88 in1011.9 mb 0.00 in0.0 mm 0.00 in0.0 mm 0.00 in0.0 mm
06:59 AM 56.5°F13.6°C 40.1°F4.5°C 54% 2.8 mph 4.5 kmh 7.4 mph11.9 kmh 29.88 in1011.9 mb 0.00 in0.0 mm 0.00 in0.0 mm 0.00 in0.0 mm
06:54 AM 56.9°F13.8°C 40.9°F4.9°C 55% 1.6 mph 2.6 kmh 7.6 mph12.2 kmh 29.87 in1011.5 mb 0.00 in0.0 mm 0.00 in0.0 mm 0.00 in0.0 mm
06:49 AM 56.9°F13.8°C 40.9°F4.9°C 55% 1.3 mph NNE2.1 kmh NNE 7.6 mph12.2 kmh 29.87 in1011.5 mb 0.00 in0.0 mm 0.00 in0.0 mm 0.00 in0.0 mm
06:44 AM 57.1°F13.9°C 41.0°F5.0°C 55% 4.0 mph N6.4 kmh N 7.6 mph12.2 kmh 29.87 in1011.5 mb 0.00 in0.0 mm 0.00 in0.0 mm 0.00 in0.0 mm
06:39 AM 57.2°F14.0°C 41.2°F5.1°C 55% 1.8 mph 2.9 kmh 5.4 mph8.7 kmh 29.86 in1011.2 mb 0.00 in0.0 mm 0.00 in0.0 mm 0.00 in0.0 mm
06:34 AM 57.4°F14.1°C 41.4°F5.2°C 55% 5.4 mph 8.7 kmh 5.4 mph8.7 kmh 29.86 in1011.2 mb 0.00 in0.0 mm 0.00 in0.0 mm 0.00 in0.0 mm
06:29 AM 57.6°F14.2°C 41.6°F5.3°C 55% 3.9 mph NNW6.3 kmh NNW 9.8 mph15.8 kmh 29.86 in1011.2 mb 0.00 in0.0 mm 0.00 in0.0 mm 0.00 in0.0 mm
06:24 AM 57.6°F14.2°C 42.0°F5.6°C 56% 5.5 mph 8.9 kmh 9.8 mph15.8 kmh 29.86 in1011.2 mb 0.00 in0.0 mm 0.00 in0.0 mm 0.00 in0.0 mm
06:19 AM 58.0°F14.4°C 42.9°F6.1°C 57% 9.8 mph NNE15.8 kmh NNE 9.8 mph15.8 kmh 29.86 in1011.2 mb 0.00 in0.0 mm 0.00 in0.0 mm 0.00 in0.0 mm
06:14 AM 58.1°F14.5°C 42.9°F6.1°C 57% 5.6 mph NNW9.0 kmh NNW 6.0 mph9.7 kmh 29.86 in1011.2 mb 0.00 in0.0 mm 0.00 in0.0 mm 0.00 in0.0 mm
06:09 AM 58.3°F14.6°C 43.1°F6.2°C 57% 3.8 mph N6.1 kmh N 11.9 mph19.2 kmh 29.86 in1011.2 mb 0.00 in0.0 mm 0.00 in0.0 mm 0.00 in0.0 mm
06:04 AM 58.3°F14.6°C 43.6°F6.4°C 58% 6.1 mph 9.8 kmh 11.9 mph19.2 kmh 29.86 in1011.2 mb 0.00 in0.0 mm 0.00 in0.0 mm 0.00 in0.0 mm
05:59 AM 58.7°F14.8°C 43.9°F6.6°C 58% 11.9 mph NNE19.2 kmh NNE 11.9 mph19.2 kmh 29.86 in1011.2 mb 0.00 in0.0 mm 0.00 in0.0 mm 0.00 in0.0 mm
05:54 AM 58.7°F14.8°C 44.4°F6.9°C 59% 7.4 mph 11.9 kmh 7.4 mph11.9 kmh 29.85 in1010.8 mb 0.00 in0.0 mm 0.00 in0.0 mm 0.00 in0.0 mm
05:49 AM 58.9°F14.9°C 44.6°F7.0°C 59% 1.3 mph N2.1 kmh N 10.5 mph16.9 kmh 29.85 in1010.8 mb 0.00 in0.0 mm 0.00 in0.0 mm 0.00 in0.0 mm
05:44 AM 59.2°F15.1°C 45.4°F7.4°C 60% 10.5 mph 16.9 kmh 13.6 mph21.9 kmh 29.85 in1010.8 mb 0.00 in0.0 mm 0.00 in0.0 mm 0.00 in0.0 mm
05:39 AM 59.4°F15.2°C 45.5°F7.5°C 60% 4.3 mph 6.9 kmh 13.6 mph21.9 kmh 29.85 in1010.8 mb 0.00 in0.0 mm 0.00 in0.0 mm 0.00 in0.0 mm
05:34 AM 59.6°F15.3°C 46.2°F7.9°C 61% 13.6 mph NNE21.9 kmh NNE 13.6 mph21.9 kmh 29.85 in1010.8 mb 0.00 in0.0 mm 0.00 in0.0 mm 0.00 in0.0 mm
05:29 AM 59.8°F15.4°C 46.4°F8.0°C 61% 5.4 mph 8.7 kmh 9.2 mph14.8 kmh 29.85 in1010.8 mb 0.00 in0.0 mm 0.00 in0.0 mm 0.00 in0.0 mm
05:24 AM 60.1°F15.6°C 46.3°F7.9°C 60% 6.9 mph 11.1 kmh 9.2 mph14.8 kmh 29.84 in1010.5 mb 0.00 in0.0 mm 0.00 in0.0 mm 0.00 in0.0 mm
05:19 AM 60.1°F15.6°C 46.3°F7.9°C 60% 9.2 mph NNW14.8 kmh NNW 9.2 mph14.8 kmh 29.84 in1010.5 mb 0.00 in0.0 mm 0.00 in0.0 mm 0.00 in0.0 mm
05:14 AM 60.3°F15.7°C 46.4°F8.0°C 60% 6.6 mph N10.6 kmh N 7.2 mph11.6 kmh 29.84 in1010.5 mb 0.00 in0.0 mm 0.00 in0.0 mm 0.00 in0.0 mm
05:09 AM 60.7°F15.9°C 46.8°F8.2°C 60% 6.9 mph 11.1 kmh 7.6 mph12.2 kmh 29.84 in1010.5 mb 0.00 in0.0 mm 0.00 in0.0 mm 0.00 in0.0 mm
05:04 AM 60.8°F16.0°C 47.0°F8.3°C 60% 7.2 mph NNW11.6 kmh NNW 7.6 mph12.2 kmh 29.84 in1010.5 mb 0.00 in0.0 mm 0.00 in0.0 mm 0.00 in0.0 mm
04:59 AM 61.0°F16.1°C 47.2°F8.4°C 60% 7.2 mph 11.6 kmh 9.8 mph15.8 kmh 29.83 in1010.2 mb 0.00 in0.0 mm 0.00 in0.0 mm 0.00 in0.0 mm
04:54 AM 61.2°F16.2°C 47.4°F8.6°C 60% 4.2 mph 6.8 kmh 9.8 mph15.8 kmh 29.83 in1010.2 mb 0.00 in0.0 mm 0.00 in0.0 mm 0.00 in0.0 mm
04:49 AM 61.4°F16.3°C 47.4°F8.6°C 60% 9.8 mph 15.8 kmh 9.8 mph15.8 kmh 29.83 in1010.2 mb 0.00 in0.0 mm 0.00 in0.0 mm 0.00 in0.0 mm
04:44 AM 61.6°F16.4°C 47.6°F8.7°C 60% 7.4 mph NNE11.9 kmh NNE 7.6 mph12.2 kmh 29.83 in1010.2 mb 0.00 in0.0 mm 0.00 in0.0 mm 0.00 in0.0 mm
04:39 AM 61.6°F16.4°C 47.2°F8.4°C 59% 4.2 mph 6.8 kmh 7.6 mph12.2 kmh 29.82 in1009.8 mb 0.00 in0.0 mm 0.00 in0.0 mm 0.00 in0.0 mm
04:34 AM 61.9°F16.6°C 47.4°F8.6°C 59% 7.3 mph NNE11.7 kmh NNE 8.5 mph13.7 kmh 29.83 in1010.2 mb 0.00 in0.0 mm 0.00 in0.0 mm 0.00 in0.0 mm
04:29 AM 61.9°F16.6°C 47.4°F8.6°C 59% 6.1 mph 9.8 kmh 8.5 mph13.7 kmh 29.82 in1009.8 mb 0.00 in0.0 mm 0.00 in0.0 mm 0.00 in0.0 mm
04:24 AM 62.3°F16.8°C 47.4°F8.6°C 58% 6.9 mph NNE11.1 kmh NNE 6.9 mph11.1 kmh 29.83 in1010.2 mb 0.00 in0.0 mm 0.00 in0.0 mm 0.00 in0.0 mm
04:19 AM 62.3°F16.8°C 47.4°F8.6°C 58% 4.7 mph 7.6 kmh 5.8 mph9.3 kmh 29.83 in1010.2 mb 0.00 in0.0 mm 0.00 in0.0 mm 0.00 in0.0 mm
04:14 AM 62.6°F17.0°C 47.6°F8.7°C 58% 2.2 mph 3.5 kmh 8.1 mph13.0 kmh 29.83 in1010.2 mb 0.00 in0.0 mm 0.00 in0.0 mm 0.00 in0.0 mm
04:09 AM 62.6°F17.0°C 47.2°F8.4°C 57% 7.0 mph 11.3 kmh 8.1 mph13.0 kmh 29.83 in1010.2 mb 0.00 in0.0 mm 0.00 in0.0 mm 0.00 in0.0 mm
04:04 AM 62.8°F17.1°C 47.4°F8.6°C 57% 4.9 mph 7.9 kmh 5.6 mph9.0 kmh 29.83 in1010.2 mb 0.00 in0.0 mm 0.00 in0.0 mm 0.00 in0.0 mm
03:59 AM 63.0°F17.2°C 47.0°F8.3°C 56% 4.7 mph 7.6 kmh 6.5 mph10.5 kmh 29.83 in1010.2 mb 0.00 in0.0 mm 0.00 in0.0 mm 0.00 in0.0 mm
03:54 AM 63.0°F17.2°C 47.0°F8.3°C 56% 5.7 mph 9.2 kmh 9.2 mph14.8 kmh 29.83 in1010.2 mb 0.00 in0.0 mm 0.00 in0.0 mm 0.00 in0.0 mm
03:49 AM 63.2°F17.3°C 47.2°F8.4°C 56% 8.3 mph 13.4 kmh 9.2 mph14.8 kmh 29.83 in1010.2 mb 0.00 in0.0 mm 0.00 in0.0 mm 0.00 in0.0 mm
03:44 AM 63.5°F17.5°C 47.0°F8.3°C 55% 3.8 mph 6.1 kmh 6.7 mph10.8 kmh 29.83 in1010.2 mb 0.00 in0.0 mm 0.00 in0.0 mm 0.00 in0.0 mm
03:39 AM 63.5°F17.5°C 47.0°F8.3°C 55% 5.4 mph NNE8.7 kmh NNE 6.7 mph10.8 kmh 29.83 in1010.2 mb 0.00 in0.0 mm 0.00 in0.0 mm 0.00 in0.0 mm
03:34 AM 63.7°F17.6°C 47.2°F8.4°C 55% 6.7 mph 10.8 kmh 8.7 mph14.0 kmh 29.83 in1010.2 mb 0.00 in0.0 mm 0.00 in0.0 mm 0.00 in0.0 mm
03:29 AM 63.9°F17.7°C 46.8°F8.2°C 54% 3.7 mph 6.0 kmh 8.7 mph14.0 kmh 29.83 in1010.2 mb 0.00 in0.0 mm 0.00 in0.0 mm 0.00 in0.0 mm
03:24 AM 64.1°F17.8°C 47.0°F8.3°C 54% 2.9 mph 4.7 kmh 8.7 mph14.0 kmh 29.82 in1009.8 mb 0.00 in0.0 mm 0.00 in0.0 mm 0.00 in0.0 mm
03:19 AM 64.3°F17.9°C 47.2°F8.4°C 54% 4.5 mph N7.2 kmh N 8.7 mph14.0 kmh 29.82 in1009.8 mb 0.00 in0.0 mm 0.00 in0.0 mm 0.00 in0.0 mm
03:14 AM 64.3°F17.9°C 46.6°F8.1°C 53% 5.7 mph N9.2 kmh N 8.7 mph14.0 kmh 29.82 in1009.8 mb 0.00 in0.0 mm 0.00 in0.0 mm 0.00 in0.0 mm
03:09 AM 64.4°F18.0°C 46.8°F8.2°C 53% 7.8 mph 12.6 kmh 7.8 mph12.6 kmh 29.82 in1009.8 mb 0.00 in0.0 mm 0.00 in0.0 mm 0.00 in0.0 mm
03:04 AM 64.4°F18.0°C 46.8°F8.2°C 53% 5.8 mph NW9.3 kmh NW 6.0 mph9.7 kmh 29.81 in1009.5 mb 0.00 in0.0 mm 0.00 in0.0 mm 0.00 in0.0 mm
02:59 AM 64.6°F18.1°C 47.0°F8.3°C 53% 5.5 mph 8.9 kmh 6.0 mph9.7 kmh 29.81 in1009.5 mb 0.00 in0.0 mm 0.00 in0.0 mm 0.00 in0.0 mm
02:54 AM 64.8°F18.2°C 46.7°F8.2°C 52% 1.8 mph 2.9 kmh 4.7 mph7.6 kmh 29.81 in1009.5 mb 0.00 in0.0 mm 0.00 in0.0 mm 0.00 in0.0 mm
02:49 AM 65.2°F18.4°C 47.1°F8.4°C 52% 3.8 mph NNW6.1 kmh NNW 5.1 mph8.2 kmh 29.81 in1009.5 mb 0.00 in0.0 mm 0.00 in0.0 mm 0.00 in0.0 mm
02:44 AM 65.2°F18.4°C 47.1°F8.4°C 52% 2.5 mph NW4.0 kmh NW 7.4 mph11.9 kmh 29.81 in1009.5 mb 0.00 in0.0 mm 0.00 in0.0 mm 0.00 in0.0 mm
02:39 AM 65.2°F18.4°C 46.5°F8.1°C 51% 6.1 mph N9.8 kmh N 7.4 mph11.9 kmh 29.81 in1009.5 mb 0.00 in0.0 mm 0.00 in0.0 mm 0.00 in0.0 mm
02:34 AM 65.3°F18.5°C 46.7°F8.2°C 51% 4.6 mph 7.4 kmh 7.4 mph11.9 kmh 29.81 in1009.5 mb 0.00 in0.0 mm 0.00 in0.0 mm 0.00 in0.0 mm
02:29 AM 65.3°F18.5°C 46.7°F8.2°C 51% 3.7 mph N6.0 kmh N 7.4 mph11.9 kmh 29.81 in1009.5 mb 0.00 in0.0 mm 0.00 in0.0 mm 0.00 in0.0 mm
02:24 AM 65.7°F18.7°C 47.1°F8.4°C 51% 4.0 mph 6.4 kmh 7.4 mph11.9 kmh 29.81 in1009.5 mb 0.00 in0.0 mm 0.00 in0.0 mm 0.00 in0.0 mm
02:19 AM 65.7°F18.7°C 47.1°F8.4°C 51% 1.8 mph N2.9 kmh N 7.4 mph11.9 kmh 29.81 in1009.5 mb 0.00 in0.0 mm 0.00 in0.0 mm 0.00 in0.0 mm
02:14 AM 65.9°F18.8°C 46.8°F8.2°C 50% 2.2 mph NE3.5 kmh NE 6.3 mph10.1 kmh 29.81 in1009.5 mb 0.00 in0.0 mm 0.00 in0.0 mm 0.00 in0.0 mm
02:09 AM 66.1°F18.9°C 47.0°F8.3°C 50% 4.6 mph WNW7.4 kmh WNW 6.3 mph10.1 kmh 29.81 in1009.5 mb 0.00 in0.0 mm 0.00 in0.0 mm 0.00 in0.0 mm
02:04 AM 66.2°F19.0°C 47.2°F8.4°C 50% 4.5 mph N7.2 kmh N 6.3 mph10.1 kmh 29.81 in1009.5 mb 0.00 in0.0 mm 0.00 in0.0 mm 0.00 in0.0 mm
01:59 AM 66.6°F19.2°C 46.9°F8.3°C 49% 3.1 mph 5.0 kmh 4.0 mph6.4 kmh 29.81 in1009.5 mb 0.00 in0.0 mm 0.00 in0.0 mm 0.00 in0.0 mm
01:54 AM 66.8°F19.3°C 47.1°F8.4°C 49% 3.0 mph N4.8 kmh N 6.0 mph9.7 kmh 29.81 in1009.5 mb 0.00 in0.0 mm 0.00 in0.0 mm 0.00 in0.0 mm
01:49 AM 66.8°F19.3°C 47.1°F8.4°C 49% 3.8 mph N6.1 kmh N 7.2 mph11.6 kmh 29.81 in1009.5 mb 0.00 in0.0 mm 0.00 in0.0 mm 0.00 in0.0 mm
01:44 AM 67.0°F19.4°C 46.6°F8.1°C 48% 6.0 mph 9.7 kmh 7.2 mph11.6 kmh 29.81 in1009.5 mb 0.00 in0.0 mm 0.00 in0.0 mm 0.00 in0.0 mm
01:39 AM 67.1°F19.5°C 46.8°F8.2°C 48% 7.2 mph NW11.6 kmh NW 7.2 mph11.6 kmh 29.81 in1009.5 mb 0.00 in0.0 mm 0.00 in0.0 mm 0.00 in0.0 mm
01:34 AM 67.3°F19.6°C 47.0°F8.3°C 48% 4.6 mph W7.4 kmh W 7.8 mph12.6 kmh 29.80 in1009.1 mb 0.00 in0.0 mm 0.00 in0.0 mm 0.00 in0.0 mm
01:29 AM 67.3°F19.6°C 47.0°F8.3°C 48% 3.7 mph NW6.0 kmh NW 8.5 mph13.7 kmh 29.80 in1009.1 mb 0.00 in0.0 mm 0.00 in0.0 mm 0.00 in0.0 mm
01:24 AM 67.5°F19.7°C 47.1°F8.4°C 48% 7.8 mph 12.6 kmh 8.5 mph13.7 kmh 29.80 in1009.1 mb 0.00 in0.0 mm 0.00 in0.0 mm 0.00 in0.0 mm
01:19 AM 67.7°F19.8°C 47.3°F8.5°C 48% 8.4 mph WNW13.5 kmh WNW 8.5 mph13.7 kmh 29.80 in1009.1 mb 0.00 in0.0 mm 0.00 in0.0 mm 0.00 in0.0 mm
01:12 AM 67.9°F19.9°C 46.8°F8.2°C 47% 4.7 mph NNW7.6 kmh NNW 5.8 mph9.3 kmh 29.80 in1009.1 mb 0.00 in0.0 mm 0.00 in0.0 mm 0.00 in0.0 mm
01:05 AM 68.0°F20.0°C 47.0°F8.3°C 47% 5.7 mph N9.2 kmh N 7.8 mph12.6 kmh 29.79 in1008.8 mb 0.00 in0.0 mm 0.00 in0.0 mm 0.00 in0.0 mm
01:00 AM 68.2°F20.1°C 47.2°F8.4°C 47% 6.3 mph NNE10.1 kmh NNE 6.3 mph10.1 kmh 29.79 in1008.8 mb 0.00 in0.0 mm 0.00 in0.0 mm 0.00 in0.0 mm
12:55 AM 68.4°F20.2°C 47.4°F8.6°C 47% 4.7 mph 7.6 kmh 5.6 mph9.0 kmh 29.79 in1008.8 mb 0.00 in0.0 mm 0.00 in0.0 mm 0.00 in0.0 mm
12:50 AM 68.6°F20.3°C 46.9°F8.3°C 46% 4.9 mph N7.9 kmh N 5.6 mph9.0 kmh 29.79 in1008.8 mb 0.00 in0.0 mm 0.00 in0.0 mm 0.00 in0.0 mm
12:45 AM 68.8°F20.4°C 47.6°F8.7°C 47% 4.7 mph NNW7.6 kmh NNW 5.4 mph8.7 kmh 29.79 in1008.8 mb 0.00 in0.0 mm 0.00 in0.0 mm 0.00 in0.0 mm
12:40 AM 68.9°F20.5°C 47.8°F8.8°C 47% 3.6 mph NNW5.8 kmh NNW 7.8 mph12.6 kmh 29.79 in1008.8 mb 0.00 in0.0 mm 0.00 in0.0 mm 0.00 in0.0 mm
12:35 AM 69.1°F20.6°C 48.0°F8.9°C 47% 6.3 mph N10.1 kmh N 8.9 mph14.3 kmh 29.79 in1008.8 mb 0.00 in0.0 mm 0.00 in0.0 mm 0.00 in0.0 mm
12:30 AM 69.3°F20.7°C 48.2°F9.0°C 47% 6.2 mph NW10.0 kmh NW 8.9 mph14.3 kmh 29.79 in1008.8 mb 0.00 in0.0 mm 0.00 in0.0 mm 0.00 in0.0 mm
12:25 AM 69.7°F20.9°C 48.4°F9.1°C 47% 8.9 mph NNW14.3 kmh NNW 8.9 mph14.3 kmh 29.79 in1008.8 mb 0.00 in0.0 mm 0.00 in0.0 mm 0.00 in0.0 mm
12:20 AM 69.8°F21.0°C 48.6°F9.2°C 47% 6.3 mph W10.1 kmh W 11.2 mph18.0 kmh 29.79 in1008.8 mb 0.00 in0.0 mm 0.00 in0.0 mm 0.00 in0.0 mm
12:15 AM 70.0°F21.1°C 48.2°F9.0°C 46% 4.8 mph N7.7 kmh N 11.2 mph18.0 kmh 29.79 in1008.8 mb 0.00 in0.0 mm 0.00 in0.0 mm 0.00 in0.0 mm
12:10 AM 70.4°F21.3°C 48.5°F9.2°C 46% 11.2 mph 18.0 kmh 11.2 mph18.0 kmh 29.79 in1008.8 mb 0.00 in0.0 mm 0.00 in0.0 mm 0.00 in0.0 mm
12:05 AM 70.6°F21.4°C 48.7°F9.3°C 46% 5.4 mph NNW8.7 kmh NNW 6.7 mph10.8 kmh 29.79 in1008.8 mb 0.00 in0.0 mm 0.00 in0.0 mm 0.00 in0.0 mm
12:00 AM 70.9°F21.6°C 48.4°F9.1°C 45% 4.7 mph NW7.6 kmh NW 6.7 mph10.8 kmh 29.79 in1008.8 mb 0.00 in0.0 mm 0.00 in0.0 mm 0.00 in0.0 mm